createdAt,value
2023-01-12T00:01:13.541Z,11.35
2023-01-12T00:03:30.586Z,18.55
2023-01-12T00:05:47.590Z,15.30
2023-01-12T00:08:06.350Z,19.83
2023-01-12T00:10:23.451Z,14.10
2023-01-12T00:12:40.489Z,14.48
2023-01-12T00:14:57.520Z,14.88
2023-01-12T00:17:16.163Z,11.77
2023-01-12T00:19:33.119Z,18.40
2023-01-12T00:21:51.373Z,16.40
2023-01-12T00:24:08.329Z,16.20
2023-01-12T00:26:25.380Z,12.55
2023-01-12T00:28:42.338Z,14.20
2023-01-12T00:30:59.579Z,17.45
2023-01-12T00:33:17.182Z,11.00
2023-01-12T00:35:34.393Z,17.30
2023-01-12T00:37:51.368Z,14.65
2023-01-12T00:40:08.381Z,16.58
2023-01-12T00:42:25.669Z,12.35
2023-01-12T00:44:43.379Z,14.13
2023-01-12T00:47:00.447Z,14.50
2023-01-12T00:49:17.648Z,17.35
2023-01-12T00:51:36.793Z,13.10
2023-01-12T00:53:55.443Z,10.23
2023-01-12T00:56:12.397Z,12.23
2023-01-12T00:58:29.468Z,12.45
2023-01-12T01:00:46.418Z,9.85
2023-01-12T01:03:03.382Z,11.65
2023-01-12T01:05:20.394Z,14.52
2023-01-12T01:07:37.736Z,14.52
2023-01-12T01:09:54.707Z,10.85
2023-01-12T01:12:11.753Z,11.27
2023-01-12T01:14:31.808Z,11.60
2023-01-12T01:16:50.097Z,10.55
2023-01-12T01:19:07.141Z,9.48
2023-01-12T01:21:24.435Z,9.77
2023-01-12T01:23:41.603Z,8.18
2023-01-12T01:25:58.614Z,9.45
2023-01-12T01:28:15.691Z,7.45
2023-01-12T01:30:32.767Z,12.63
2023-01-12T01:32:49.681Z,8.45
2023-01-12T01:35:07.037Z,12.70
2023-01-12T01:37:24.016Z,9.18
2023-01-12T01:39:41.970Z,10.68
2023-01-12T01:41:59.229Z,8.77
2023-01-12T01:44:16.291Z,8.75
2023-01-12T01:46:33.603Z,7.82
2023-01-12T01:48:50.970Z,9.75
2023-01-12T01:51:08.018Z,10.30
2023-01-12T01:53:24.926Z,12.77
2023-01-12T01:55:41.908Z,16.13
2023-01-12T01:57:58.884Z,8.88
2023-01-12T02:00:16.159Z,10.60
2023-01-12T02:02:33.263Z,13.50
2023-01-12T02:04:50.252Z,13.68
2023-01-12T02:07:07.137Z,18.77
2023-01-12T02:09:24.408Z,12.57
2023-01-12T02:11:43.022Z,14.00
2023-01-12T02:14:00.024Z,13.88
2023-01-12T02:16:17.084Z,12.48
2023-01-12T02:18:34.413Z,10.30
2023-01-12T02:20:51.546Z,18.15
2023-01-12T02:23:09.785Z,10.88
2023-01-12T02:25:26.870Z,11.43
2023-01-12T02:27:44.228Z,9.23
2023-01-12T02:30:01.543Z,14.00
2023-01-12T02:32:18.581Z,9.02
2023-01-12T02:34:35.896Z,12.63
2023-01-12T02:36:52.910Z,10.80
2023-01-12T02:39:10.164Z,8.05
2023-01-12T02:41:27.217Z,10.55
2023-01-12T02:43:44.362Z,11.85
2023-01-12T02:46:01.427Z,8.68
2023-01-12T02:48:19.674Z,12.65
2023-01-12T02:50:36.709Z,8.48
2023-01-12T02:52:53.785Z,12.00
2023-01-12T02:55:11.181Z,6.55
2023-01-12T02:57:28.198Z,10.30
2023-01-12T02:59:45.212Z,6.40
2023-01-12T03:02:02.255Z,6.15
2023-01-12T03:04:19.559Z,8.27
2023-01-12T03:06:36.542Z,8.93
2023-01-12T03:08:53.591Z,5.15
2023-01-12T03:11:10.905Z,6.13
2023-01-12T03:13:28.119Z,9.10
2023-01-12T03:15:48.254Z,5.72
2023-01-12T03:18:05.496Z,6.75
2023-01-12T03:20:22.526Z,11.93
2023-01-12T03:22:39.536Z,9.57
2023-01-12T03:24:56.830Z,10.85
2023-01-12T03:27:14.999Z,7.97
2023-01-12T03:29:31.937Z,8.32
2023-01-12T03:31:48.907Z,9.63
2023-01-12T03:34:05.918Z,8.85
2023-01-12T03:36:22.842Z,5.85
2023-01-12T03:38:40.117Z,8.52
2023-01-12T03:40:57.344Z,7.20
2023-01-12T03:43:14.343Z,3.97
2023-01-12T03:45:31.311Z,8.13
2023-01-12T03:47:48.314Z,4.55
2023-01-12T03:50:05.379Z,8.98
2023-01-12T03:52:22.679Z,6.05
2023-01-12T03:54:41.763Z,8.05
2023-01-12T03:56:58.996Z,5.20
2023-01-12T03:59:17.249Z,7.03
2023-01-12T04:01:34.567Z,7.30
2023-01-12T04:03:51.948Z,4.60
2023-01-12T04:06:09.326Z,7.25
2023-01-12T04:08:26.387Z,6.07
2023-01-12T04:10:45.589Z,5.53
2023-01-12T04:13:02.633Z,6.55
2023-01-12T04:15:19.971Z,3.97
2023-01-12T04:17:40.132Z,9.40
2023-01-12T04:19:57.431Z,8.07
2023-01-12T04:22:15.452Z,6.88
2023-01-12T04:24:33.276Z,9.40
2023-01-12T04:26:52.243Z,7.88
2023-01-12T04:29:09.192Z,6.20
2023-01-12T04:31:26.237Z,10.75
2023-01-12T04:33:43.516Z,10.27
2023-01-12T04:36:00.497Z,8.25
2023-01-12T04:38:18.507Z,7.30
2023-01-12T04:40:35.469Z,5.65
2023-01-12T04:42:52.486Z,10.43
2023-01-12T04:45:09.529Z,6.63
2023-01-12T04:47:26.540Z,7.95
2023-01-12T04:49:43.682Z,6.65
2023-01-12T04:52:01.608Z,8.63
2023-01-12T04:54:18.429Z,7.10
2023-01-12T04:56:35.430Z,8.02
2023-01-12T04:58:52.741Z,8.43
2023-01-12T05:01:10.172Z,6.38
2023-01-12T05:03:27.198Z,7.80
2023-01-12T05:05:44.213Z,5.50
2023-01-12T05:08:01.104Z,9.20
2023-01-12T05:10:18.101Z,8.52
2023-01-12T05:12:35.146Z,8.73
2023-01-12T05:14:53.145Z,7.40
2023-01-12T05:17:10.073Z,6.15
2023-01-12T05:19:27.373Z,7.50
2023-01-12T05:21:45.552Z,6.20
2023-01-12T05:24:03.898Z,5.63
2023-01-12T05:26:20.840Z,5.25
2023-01-12T05:28:40.311Z,6.15
2023-01-12T05:30:57.359Z,8.05
2023-01-12T05:33:14.259Z,14.70
2023-01-12T05:35:31.311Z,10.57
2023-01-12T05:37:49.310Z,13.68
2023-01-12T05:40:06.384Z,13.73
2023-01-12T05:42:24.451Z,15.30
2023-01-12T05:44:43.081Z,8.75
2023-01-12T05:47:00.045Z,12.85
2023-01-12T05:49:17.086Z,10.48
2023-01-12T05:51:34.067Z,9.52
2023-01-12T05:53:51.002Z,13.02
2023-01-12T05:56:08.320Z,12.93
2023-01-12T05:58:25.299Z,10.30
2023-01-12T06:00:42.289Z,11.45
2023-01-12T06:03:00.822Z,11.63
2023-01-12T06:05:17.926Z,8.88
2023-01-12T06:07:35.392Z,12.43
2023-01-12T06:09:53.667Z,9.70
2023-01-12T06:12:11.264Z,10.55
2023-01-12T06:14:28.187Z,13.18
2023-01-12T06:16:45.128Z,14.80
2023-01-12T06:19:02.216Z,11.45
2023-01-12T06:21:19.197Z,20.40
2023-01-12T06:23:37.806Z,13.40
2023-01-12T06:25:55.567Z,9.23
2023-01-12T06:28:14.309Z,9.95
2023-01-12T06:30:31.364Z,11.60
2023-01-12T06:32:48.400Z,11.23
2023-01-12T06:35:17.875Z,12.02
2023-01-12T06:37:35.875Z,9.43
2023-01-12T06:39:53.210Z,10.82
2023-01-12T06:42:10.520Z,11.15
2023-01-12T06:44:27.759Z,14.73
2023-01-12T06:46:44.998Z,13.60
2023-01-12T06:49:01.924Z,11.32
2023-01-12T06:51:18.984Z,21.10
2023-01-12T06:53:35.979Z,26.20
2023-01-12T06:55:52.861Z,29.50
2023-01-12T06:58:10.032Z,30.08
2023-01-12T07:00:27.378Z,22.38
2023-01-12T07:02:44.400Z,15.00
2023-01-12T07:05:01.464Z,14.32
2023-01-12T07:07:18.716Z,13.15
2023-01-12T07:09:36.861Z,16.40
2023-01-12T07:11:53.876Z,10.98
2023-01-12T07:14:10.908Z,12.02
2023-01-12T07:16:29.167Z,10.95
2023-01-12T07:18:46.165Z,5.80
2023-01-12T07:21:03.183Z,10.98
2023-01-12T07:23:20.146Z,9.70
2023-01-12T07:25:38.129Z,13.73
2023-01-12T07:27:55.355Z,12.95
2023-01-12T07:30:12.568Z,10.63
2023-01-12T07:32:29.794Z,15.27
2023-01-12T07:34:50.282Z,10.23
2023-01-12T07:37:07.598Z,15.75
2023-01-12T07:39:24.922Z,9.95
2023-01-12T07:41:41.995Z,14.15
2023-01-12T07:43:58.998Z,6.47
2023-01-12T07:46:16.437Z,5.70
2023-01-12T07:48:34.488Z,4.75
2023-01-12T07:50:51.544Z,6.15
2023-01-12T07:53:08.837Z,6.82
2023-01-12T07:55:26.173Z,3.97
2023-01-12T07:57:43.224Z,6.05
2023-01-12T08:00:00.313Z,9.13
2023-01-12T08:02:18.417Z,5.90
2023-01-12T08:04:36.756Z,5.93
2023-01-12T08:06:53.982Z,9.52
2023-01-12T08:09:11.301Z,4.95
2023-01-12T08:11:28.593Z,6.53
2023-01-12T08:13:45.689Z,5.60
2023-01-12T08:16:04.172Z,6.47
2023-01-12T08:18:21.298Z,4.55
2023-01-12T08:20:38.603Z,3.08
2023-01-12T08:22:55.787Z,6.53
2023-01-12T08:25:13.124Z,4.53
2023-01-12T08:27:30.215Z,4.28
2023-01-12T08:29:47.501Z,4.68
2023-01-12T08:32:05.014Z,5.30
2023-01-12T08:34:22.217Z,3.45
2023-01-12T08:36:39.719Z,5.75
2023-01-12T08:38:57.233Z,6.22
2023-01-12T08:41:15.588Z,5.00
2023-01-12T08:43:32.899Z,5.70
2023-01-12T08:45:49.928Z,4.97
2023-01-12T08:48:07.181Z,4.28
2023-01-12T08:50:24.334Z,4.65
2023-01-12T08:52:41.241Z,5.28
2023-01-12T08:54:58.477Z,6.40
2023-01-12T08:57:16.513Z,6.47
2023-01-12T08:59:33.887Z,3.60
2023-01-12T09:01:51.057Z,8.10
2023-01-12T09:04:08.205Z,4.95
2023-01-12T09:06:25.594Z,7.25
2023-01-12T09:08:42.989Z,7.78
2023-01-12T09:11:00.070Z,5.00
2023-01-12T09:13:17.112Z,15.13
2023-01-12T09:15:34.431Z,5.22
2023-01-12T09:17:52.758Z,5.00
2023-01-12T09:20:09.681Z,2.60
2023-01-12T09:22:26.993Z,3.60
2023-01-12T09:24:44.037Z,6.22
2023-01-12T09:27:01.108Z,4.10
2023-01-12T09:29:18.123Z,3.10
2023-01-12T09:31:35.195Z,2.22
2023-01-12T09:33:52.553Z,3.42
2023-01-12T09:36:09.620Z,2.67
2023-01-12T09:38:26.537Z,2.30
2023-01-12T09:40:43.485Z,3.45
2023-01-12T09:43:00.732Z,3.90
2023-01-12T09:45:17.689Z,3.50
2023-01-12T09:47:35.016Z,2.80
2023-01-12T09:49:55.943Z,2.53
2023-01-12T09:52:15.939Z,2.15
2023-01-12T09:54:33.233Z,2.85
2023-01-12T09:56:50.277Z,5.00
2023-01-12T09:59:07.261Z,5.50
2023-01-12T10:01:29.538Z,2.58
2023-01-12T10:03:47.483Z,2.70
2023-01-12T10:06:04.522Z,1.75
2023-01-12T10:08:21.441Z,3.50
2023-01-12T10:10:38.482Z,4.65
2023-01-12T10:12:55.478Z,3.10
2023-01-12T10:15:13.729Z,3.85
2023-01-12T10:17:38.654Z,4.57
2023-01-12T10:19:59.452Z,6.78
2023-01-12T10:22:16.532Z,2.97
2023-01-12T10:24:34.540Z,4.10
2023-01-12T10:26:51.864Z,5.15
2023-01-12T10:29:08.768Z,3.83
2023-01-12T10:31:26.058Z,1.80
2023-01-12T10:33:43.022Z,2.85
2023-01-12T10:36:00.044Z,3.17
2023-01-12T10:38:17.333Z,4.13
2023-01-12T10:40:34.347Z,1.75
2023-01-12T10:42:51.417Z,4.57
2023-01-12T10:45:08.391Z,4.07
2023-01-12T10:47:25.401Z,3.90
2023-01-12T10:49:42.517Z,5.15
2023-01-12T10:51:59.800Z,1.08
2023-01-12T10:54:16.938Z,4.15
2023-01-12T10:56:33.925Z,2.03
2023-01-12T10:58:51.049Z,2.80
2023-01-12T11:01:08.339Z,4.75
2023-01-12T11:03:25.417Z,3.03
2023-01-12T11:05:42.721Z,1.77
2023-01-12T11:07:59.681Z,2.60
2023-01-12T11:10:19.286Z,2.85
2023-01-12T11:12:37.222Z,3.15
2023-01-12T11:14:55.466Z,1.77
2023-01-12T11:17:12.547Z,3.08
2023-01-12T11:19:30.682Z,2.15
2023-01-12T11:21:47.750Z,3.50
2023-01-12T11:24:04.771Z,1.52
2023-01-12T11:26:23.017Z,2.08
2023-01-12T11:28:40.643Z,3.30
2023-01-12T11:30:57.743Z,2.25
2023-01-12T11:33:15.291Z,1.48
2023-01-12T11:35:35.431Z,2.08
2023-01-12T11:37:53.529Z,2.00
2023-01-12T11:40:11.722Z,2.17
2023-01-12T11:42:28.762Z,5.65
2023-01-12T11:44:46.088Z,2.28
2023-01-12T11:47:03.347Z,2.08
2023-01-12T11:49:20.420Z,2.15
2023-01-12T11:51:37.738Z,5.32
2023-01-12T11:53:54.870Z,5.55
2023-01-12T11:56:13.248Z,6.38
2023-01-12T11:58:30.562Z,10.15
2023-01-12T12:00:47.604Z,19.50
2023-01-12T12:03:05.083Z,16.83
2023-01-12T12:05:22.700Z,15.05
2023-01-12T12:07:39.842Z,11.13
2023-01-12T12:09:56.818Z,10.27
2023-01-12T12:12:13.906Z,5.35
2023-01-12T12:14:31.249Z,2.80
2023-01-12T12:16:49.279Z,3.85
2023-01-12T12:19:09.748Z,5.95
2023-01-12T12:21:26.900Z,3.00
2023-01-12T12:23:45.204Z,1.50
2023-01-12T12:26:02.547Z,1.42
2023-01-12T12:28:20.875Z,2.60
2023-01-12T12:30:37.983Z,2.55
2023-01-12T12:32:56.035Z,2.05
2023-01-12T12:35:13.415Z,2.83
2023-01-12T12:37:30.339Z,2.05
2023-01-12T12:39:47.661Z,2.55
2023-01-12T12:42:04.660Z,2.95
2023-01-12T12:44:21.688Z,3.67
2023-01-12T12:46:38.810Z,2.78
2023-01-12T12:48:55.770Z,2.03
2023-01-12T12:51:12.874Z,2.10
2023-01-12T12:53:29.817Z,1.98
2023-01-12T12:55:49.646Z,4.95
2023-01-12T12:58:07.784Z,4.03
2023-01-12T13:00:25.534Z,4.38
2023-01-12T13:02:42.616Z,1.33
2023-01-12T13:04:59.689Z,1.05
2023-01-12T13:07:16.903Z,4.28
2023-01-12T13:09:34.031Z,1.52
2023-01-12T13:11:51.173Z,3.92
2023-01-12T13:14:08.878Z,15.73
2023-01-12T13:16:28.822Z,5.25
2023-01-12T13:18:46.899Z,3.10
2023-01-12T13:21:05.915Z,4.30
2023-01-12T13:23:23.085Z,1.83
2023-01-12T13:25:41.768Z,1.60
2023-01-12T13:27:58.976Z,4.15
2023-01-12T13:30:17.767Z,0.85
2023-01-12T13:32:36.002Z,0.50
2023-01-12T13:34:54.142Z,1.02
2023-01-12T13:37:11.211Z,0.80
2023-01-12T13:39:29.301Z,2.17
2023-01-12T13:41:49.157Z,0.77
2023-01-12T13:44:07.263Z,1.10
2023-01-12T13:46:24.676Z,1.40
2023-01-12T13:48:43.078Z,2.25
2023-01-12T13:51:01.342Z,1.65
2023-01-12T13:53:19.658Z,1.85
2023-01-12T13:55:36.613Z,0.40
2023-01-12T13:57:53.687Z,1.38
2023-01-12T14:00:11.185Z,0.60
2023-01-12T14:02:28.647Z,1.30
2023-01-12T14:04:45.604Z,1.30
2023-01-12T14:07:02.897Z,0.65
2023-01-12T14:09:19.988Z,1.33
2023-01-12T14:11:36.942Z,0.93
2023-01-12T14:13:54.474Z,0.98
2023-01-12T14:16:12.920Z,1.40
2023-01-12T14:18:30.003Z,1.98
2023-01-12T14:20:47.047Z,0.60
2023-01-12T14:23:05.052Z,1.00
2023-01-12T14:25:22.076Z,0.88
2023-01-12T14:27:39.441Z,2.47
2023-01-12T14:29:56.617Z,0.85
2023-01-12T14:32:14.151Z,1.58
2023-01-12T14:34:31.423Z,0.63
2023-01-12T14:36:48.611Z,1.20
2023-01-12T14:39:06.194Z,0.90
2023-01-12T14:41:23.572Z,1.23
2023-01-12T14:43:41.044Z,0.93
2023-01-12T14:45:58.231Z,1.60
2023-01-12T14:48:15.272Z,1.38
2023-01-12T14:50:34.441Z,2.47
2023-01-12T14:52:53.523Z,2.35
2023-01-12T14:55:10.757Z,2.10
2023-01-12T14:57:29.009Z,3.53
2023-01-12T14:59:46.335Z,2.65
2023-01-12T15:02:04.580Z,3.53
2023-01-12T15:04:21.941Z,0.60
2023-01-12T15:06:40.131Z,0.88
2023-01-12T15:08:58.123Z,1.92
2023-01-12T15:11:15.393Z,1.85
2023-01-12T15:13:32.478Z,1.23
2023-01-12T15:15:49.703Z,0.30
2023-01-12T15:18:06.987Z,1.25
2023-01-12T15:20:24.383Z,0.75
2023-01-12T15:22:41.421Z,0.35
2023-01-12T15:24:58.569Z,0.55
2023-01-12T15:27:15.877Z,1.15
2023-01-12T15:29:32.913Z,0.68
2023-01-12T15:31:49.926Z,0.60
2023-01-12T15:34:07.267Z,3.35
2023-01-12T15:36:24.922Z,0.73
2023-01-12T15:38:41.955Z,0.52
2023-01-12T15:40:59.300Z,2.95
2023-01-12T15:43:16.482Z,0.57
2023-01-12T15:45:33.651Z,0.52
2023-01-12T15:47:50.728Z,1.17
2023-01-12T15:50:07.879Z,1.58
2023-01-12T15:52:24.937Z,0.60
2023-01-12T15:54:42.061Z,0.50
2023-01-12T15:57:01.205Z,1.00
2023-01-12T15:59:18.299Z,1.67
2023-01-12T16:01:38.772Z,2.60
2023-01-12T16:04:25.050Z,1.13
2023-01-12T16:06:33.078Z,1.52
2023-01-12T16:08:50.464Z,1.23
2023-01-12T16:11:08.515Z,1.83
2023-01-12T16:13:25.778Z,1.42
2023-01-12T16:15:44.140Z,1.70
2023-01-12T16:18:01.415Z,1.30
2023-01-12T16:20:18.532Z,2.40
2023-01-12T16:22:35.895Z,1.73
2023-01-12T16:24:53.189Z,2.95
2023-01-12T16:27:10.654Z,2.50
2023-01-12T16:29:32.488Z,1.08
2023-01-12T16:31:51.729Z,2.10
2023-01-12T16:34:12.194Z,1.63
2023-01-12T16:36:29.073Z,2.50
2023-01-12T16:38:46.367Z,1.08
2023-01-12T16:41:05.562Z,1.00
2023-01-12T16:43:22.536Z,3.67
2023-01-12T16:45:39.531Z,1.83
2023-01-12T16:47:56.620Z,3.92
2023-01-12T16:50:14.697Z,2.08
2023-01-12T16:52:32.198Z,1.48
2023-01-12T16:54:49.273Z,1.50
2023-01-12T16:57:06.168Z,3.80
2023-01-12T16:59:23.145Z,3.63
2023-01-12T17:01:40.683Z,2.17
2023-01-12T17:03:58.142Z,1.73
2023-01-12T17:06:15.285Z,1.65
2023-01-12T17:08:32.719Z,4.28
2023-01-12T17:10:52.914Z,1.92
2023-01-12T17:13:10.116Z,1.70
2023-01-12T17:15:27.457Z,1.48
2023-01-12T17:17:45.817Z,2.33
2023-01-12T17:20:02.969Z,1.80
2023-01-12T17:22:20.362Z,1.10
2023-01-12T17:24:37.744Z,2.22
2023-01-12T17:26:55.015Z,1.15
2023-01-12T17:29:12.646Z,1.42
2023-01-12T17:31:32.816Z,1.65
2023-01-12T17:33:52.653Z,0.80
2023-01-12T17:36:09.937Z,0.95
2023-01-12T17:38:27.451Z,1.40
2023-01-12T17:40:44.806Z,1.80
2023-01-12T17:43:03.233Z,1.05
2023-01-12T17:45:20.732Z,1.10
2023-01-12T17:47:37.798Z,0.50
2023-01-12T17:49:55.006Z,0.73
2023-01-12T17:52:12.212Z,1.98
2023-01-12T17:54:29.410Z,1.30
2023-01-12T17:56:46.471Z,0.70
2023-01-12T17:59:06.812Z,2.28
2023-01-12T18:01:24.091Z,1.63
2023-01-12T18:03:41.400Z,0.90
2023-01-12T18:06:09.090Z,1.70
2023-01-12T18:08:29.838Z,3.15
2023-01-12T18:10:46.888Z,2.40
2023-01-12T18:13:04.049Z,1.58
2023-01-12T18:15:21.075Z,0.95
2023-01-12T18:17:38.114Z,1.77
2023-01-12T18:19:55.408Z,2.83
2023-01-12T18:22:15.224Z,3.28
2023-01-12T18:24:32.203Z,2.58
2023-01-12T18:26:49.202Z,1.77
2023-01-12T18:29:06.299Z,2.58
2023-01-12T18:31:23.501Z,1.95
2023-01-12T18:33:41.563Z,4.50
2023-01-12T18:35:58.866Z,2.40
2023-01-12T18:38:15.821Z,3.00
2023-01-12T18:40:33.855Z,2.20
2023-01-12T18:42:50.924Z,1.92
2023-01-12T18:45:08.221Z,2.45
2023-01-12T18:47:25.354Z,1.10
2023-01-12T18:49:43.278Z,0.77
2023-01-12T18:52:00.784Z,2.58
2023-01-12T18:54:19.265Z,0.57
2023-01-12T18:56:36.303Z,0.93
2023-01-12T18:58:53.298Z,2.88
2023-01-12T19:01:10.433Z,1.15
2023-01-12T19:03:27.444Z,4.38
2023-01-12T19:05:44.818Z,1.65
2023-01-12T19:08:01.949Z,3.70
2023-01-12T19:10:20.382Z,2.30
2023-01-12T19:12:37.383Z,2.75
2023-01-12T19:14:54.347Z,2.97
2023-01-12T19:17:11.881Z,1.92
2023-01-12T19:19:28.974Z,2.08
2023-01-12T19:21:49.739Z,2.55
2023-01-12T19:24:06.665Z,3.75
2023-01-12T19:26:23.842Z,1.30
2023-01-12T19:28:40.848Z,2.10
2023-01-12T19:30:58.022Z,2.72
2023-01-12T19:33:16.023Z,3.03
2023-01-12T19:35:34.356Z,1.85
2023-01-12T19:37:51.751Z,1.83
2023-01-12T19:40:08.927Z,1.90
2023-01-12T19:42:26.223Z,2.63
2023-01-12T19:44:44.561Z,2.17
2023-01-12T19:47:01.636Z,1.48
2023-01-12T19:49:18.610Z,2.47
2023-01-12T19:51:35.960Z,2.85
2023-01-12T19:53:54.282Z,2.83
2023-01-12T19:56:11.291Z,1.38
2023-01-12T19:58:28.644Z,1.33
2023-01-12T20:00:46.094Z,1.95
2023-01-12T20:03:03.433Z,3.55
2023-01-12T20:05:20.395Z,1.85
2023-01-12T20:07:37.426Z,2.55
2023-01-12T20:09:54.923Z,1.60
2023-01-12T20:12:11.889Z,1.02
2023-01-12T20:14:29.229Z,2.75
2023-01-12T20:16:46.248Z,2.60
2023-01-12T20:19:03.421Z,2.75
2023-01-12T20:21:20.682Z,1.50
2023-01-12T20:23:37.928Z,0.90
2023-01-12T20:25:55.005Z,2.55
2023-01-12T20:28:11.973Z,1.45
2023-01-12T20:30:37.813Z,1.27
2023-01-12T20:32:55.482Z,2.55
2023-01-12T20:35:12.700Z,1.60
2023-01-12T20:37:29.663Z,1.10
2023-01-12T20:39:46.773Z,1.33
2023-01-12T20:42:04.018Z,1.17
2023-01-12T20:44:21.378Z,3.15
2023-01-12T20:46:38.760Z,2.20
2023-01-12T20:48:55.787Z,2.97
2023-01-12T20:51:12.775Z,3.13
2023-01-12T20:53:30.040Z,3.47
2023-01-12T20:55:47.396Z,2.17
2023-01-12T20:58:05.874Z,1.67
2023-01-12T21:00:22.978Z,4.00
2023-01-12T21:02:40.374Z,4.43
2023-01-12T21:04:57.373Z,1.38
2023-01-12T21:07:14.461Z,2.95
2023-01-12T21:09:31.443Z,2.63
2023-01-12T21:11:48.541Z,3.15
2023-01-12T21:14:05.566Z,0.80
2023-01-12T21:16:22.784Z,1.98
2023-01-12T21:18:39.965Z,4.07
2023-01-12T21:20:57.253Z,0.70
2023-01-12T21:23:14.414Z,0.95
2023-01-12T21:25:31.761Z,1.10
2023-01-12T21:27:49.027Z,0.98
2023-01-12T21:30:06.290Z,2.67
2023-01-12T21:32:24.614Z,1.48
2023-01-12T21:34:41.594Z,2.05
2023-01-12T21:36:58.598Z,2.22
2023-01-12T21:39:16.068Z,1.60
2023-01-12T21:41:34.162Z,1.58
2023-01-12T21:43:51.512Z,0.77
2023-01-12T21:46:09.649Z,0.95
2023-01-12T21:48:27.107Z,0.77
2023-01-12T21:50:44.134Z,1.60
2023-01-12T21:53:02.440Z,1.17
2023-01-12T21:55:19.612Z,1.17
2023-01-12T21:57:36.508Z,0.93
2023-01-12T21:59:54.930Z,0.98
2023-01-12T22:02:12.337Z,1.15
2023-01-12T22:04:29.431Z,1.00
2023-01-12T22:06:46.452Z,1.40
2023-01-12T22:09:03.466Z,1.20
2023-01-12T22:11:20.748Z,0.80
2023-01-12T22:13:37.830Z,0.50
2023-01-12T22:15:54.782Z,1.05
2023-01-12T22:18:12.126Z,2.13
2023-01-12T22:20:29.585Z,1.25
2023-01-12T22:22:46.916Z,1.77
2023-01-12T22:25:05.198Z,1.17
2023-01-12T22:27:24.536Z,0.55
2023-01-12T22:29:43.116Z,0.57
2023-01-12T22:32:01.216Z,1.23
2023-01-12T22:34:18.364Z,1.50
2023-01-12T22:36:35.523Z,0.40
2023-01-12T22:38:52.899Z,1.15
2023-01-12T22:41:09.866Z,1.42
2023-01-12T22:43:30.014Z,1.63
2023-01-12T22:45:47.493Z,1.10
2023-01-12T22:48:05.453Z,1.88
2023-01-12T22:50:22.785Z,0.73
2023-01-12T22:52:40.192Z,1.42
2023-01-12T22:54:57.282Z,1.48
2023-01-12T22:57:14.398Z,0.95
2023-01-12T22:59:31.536Z,2.08
2023-01-12T23:01:48.597Z,0.30
2023-01-12T23:04:05.608Z,0.68
2023-01-12T23:06:22.563Z,3.75
2023-01-12T23:08:39.785Z,1.90
2023-01-12T23:10:57.063Z,0.40
2023-01-12T23:13:15.193Z,0.65
2023-01-12T23:15:32.362Z,1.13
2023-01-12T23:17:49.797Z,1.65
2023-01-12T23:20:06.821Z,0.47
2023-01-12T23:22:23.881Z,1.15
2023-01-12T23:24:40.871Z,1.05
2023-01-12T23:26:57.785Z,3.45
2023-01-12T23:29:14.833Z,0.40
2023-01-12T23:31:32.000Z,2.58
2023-01-12T23:33:49.943Z,0.60
2023-01-12T23:36:07.037Z,0.57
2023-01-12T23:38:26.392Z,0.50
2023-01-12T23:40:45.159Z,1.20
2023-01-12T23:43:02.131Z,1.42
2023-01-12T23:45:19.174Z,1.13
2023-01-12T23:47:36.450Z,1.05
2023-01-12T23:49:53.797Z,0.80
2023-01-12T23:52:11.879Z,0.38
2023-01-12T23:54:28.916Z,1.75
2023-01-12T23:56:45.851Z,0.70
2023-01-12T23:59:03.633Z,1.90
